Time;durP1;ratioP1;P1;durP2;ratioP2;P2;SDS_P1;SDS_P2;PMS_P1;PMS_P2;Temp;Humidity;BMP_temperature;BMP_pressure;BME280_temperature;BME280_humidity;BME280_pressure;Samples;Min_cycle;Max_cycle;Signal;HPM_P1;HPM_P2
2022/01/22 00:01:09;;;;;;;7.78;3.65;;;;;;;1.85;75.30;100427.34;4976078;28;20023;-81
2022/01/22 00:03:49;;;;;;;10.60;3.60;;;;;;;1.90;74.88;100424.09;4957954;28;20387;-79
2022/01/22 00:06:36;;;;;;;13.15;4.88;;;;;;;1.89;75.33;100422.50;4975658;28;20033;-81
2022/01/22 00:09:03;;;;;;;18.92;4.88;;;;;;;1.86;76.07;100423.34;4957912;28;20514;-80
2022/01/22 00:11:35;;;;;;;11.10;4.28;;;;;;;1.88;76.55;100423.69;4975172;28;20026;-79
2022/01/22 00:16:48;;;;;;;14.48;4.13;;;;;;;1.81;77.24;100428.59;4975048;28;20053;-80
2022/01/22 00:19:15;;;;;;;11.15;4.20;;;;;;;1.77;78.58;100417.41;4973786;28;20353;-81
2022/01/22 00:21:41;;;;;;;10.13;4.00;;;;;;;1.83;77.59;100417.72;4973951;28;20037;-80
2022/01/22 00:24:10;;;;;;;19.15;5.75;;;;;;;1.73;79.12;100420.25;4973838;28;20033;-80
2022/01/22 00:26:37;;;;;;;8.52;4.85;;;;;;;1.71;79.56;100416.28;4957873;28;20045;-80
2022/01/22 00:29:07;;;;;;;16.67;5.50;;;;;;;1.76;79.06;100424.25;4955989;28;20034;-81
2022/01/22 00:31:34;;;;;;;15.70;6.43;;;;;;;1.74;79.70;100413.41;4973227;28;20049;-80
2022/01/22 00:34:01;;;;;;;12.38;4.93;;;;;;;1.74;79.80;100416.22;4975190;28;20471;-81
2022/01/22 00:36:27;;;;;;;12.23;6.07;;;;;;;1.76;79.39;100418.63;4957470;28;20039;-81
2022/01/22 00:38:52;;;;;;;14.05;6.20;;;;;;;1.75;80.01;100419.84;4975005;28;20172;-80
2022/01/22 00:41:20;;;;;;;13.07;5.43;;;;;;;1.70;79.39;100414.66;4973552;28;20050;-80
2022/01/22 00:43:49;;;;;;;14.35;5.97;;;;;;;1.70;80.38;100415.47;4973506;28;20464;-80
2022/01/22 00:46:15;;;;;;;17.65;7.20;;;;;;;1.74;80.44;100416.22;4973402;28;20114;-80
2022/01/22 00:48:41;;;;;;;17.08;8.40;;;;;;;1.71;81.16;100410.66;4973727;28;20030;-80
2022/01/22 00:51:08;;;;;;;13.98;6.53;;;;;;;1.68;80.95;100408.66;4973852;28;20035;-80
2022/01/22 00:53:33;;;;;;;22.38;7.05;;;;;;;1.76;81.06;100424.25;4974918;28;20066;-80
2022/01/22 00:55:59;;;;;;;18.85;6.88;;;;;;;1.81;81.50;100412.56;4972731;28;20034;-80
2022/01/22 00:58:25;;;;;;;16.02;7.43;;;;;;;1.80;82.19;100410.16;4974310;28;20043;-80
2022/01/22 01:00:51;;;;;;;13.10;6.57;;;;;;;1.84;81.91;100413.72;4957362;28;20479;-81
2022/01/22 01:03:18;;;;;;;12.10;6.63;;;;;;;1.83;81.74;100412.91;4975398;28;20491;-81
2022/01/22 01:05:43;;;;;;;14.80;6.75;;;;;;;1.82;81.29;100413.34;4973692;28;20082;-81
2022/01/22 01:08:11;;;;;;;15.38;6.72;;;;;;;1.81;81.48;100415.38;4972639;28;20590;-82
2022/01/22 01:10:36;;;;;;;13.10;6.47;;;;;;;1.84;81.55;100413.72;4973503;28;20033;-81
2022/01/22 01:13:04;;;;;;;14.60;6.35;;;;;;;1.80;81.80;100410.97;4973175;28;20408;-80
2022/01/22 01:15:43;;;;;;;13.43;5.93;;;;;;;1.84;81.61;100403.28;4957537;28;20039;-81
2022/01/22 01:32:41;;;;;;;9.55;5.05;;;;;;;1.91;81.95;100400.41;4933374;29;20532;-81
2022/01/22 01:35:08;;;;;;;10.63;5.68;;;;;;;2.01;81.57;100409.94;4942173;28;20035;-81
2022/01/22 01:37:35;;;;;;;8.73;5.25;;;;;;;1.97;81.78;100398.75;4973074;28;20037;-81
2022/01/22 01:40:29;;;;;;;7.72;4.72;;;;;;;2.05;81.16;100408.69;4974360;28;20034;-80
2022/01/22 01:45:39;;;;;;;7.90;4.50;;;;;;;2.09;81.26;100415.03;4977166;28;20078;-79
2022/01/22 01:48:10;;;;;;;9.52;5.28;;;;;;;2.13;81.21;100407.38;4976610;28;20027;-81
2022/01/22 01:50:39;;;;;;;9.30;4.20;;;;;;;2.10;81.40;100393.38;4961281;28;20031;-80
2022/01/22 01:56:03;;;;;;;8.07;4.95;;;;;;;2.17;81.86;100412.97;4975798;28;20090;-80
2022/01/22 01:58:20;;;;;;;7.93;4.10;;;;;;;2.17;80.78;100401.72;4974514;28;20503;-80
2022/01/22 02:00:46;;;;;;;5.60;4.25;;;;;;;2.25;80.63;100417.28;4976420;28;20113;-80
2022/01/22 02:03:13;;;;;;;5.95;3.88;;;;;;;2.30;80.04;100414.00;4976235;28;20065;-80
2022/01/22 02:05:40;;;;;;;6.07;3.72;;;;;;;2.32;79.83;100422.78;4976445;28;20030;-79
2022/01/22 02:08:08;;;;;;;7.38;3.75;;;;;;;2.33;80.33;100418.78;4976262;28;20107;-80
2022/01/22 02:10:42;;;;;;;10.15;5.15;;;;;;;2.26;80.98;100401.22;4976534;28;20035;-81
2022/01/22 02:24:15;;;;;;;7.78;4.25;;;;;;;2.38;80.53;100411.88;4977184;28;20534;-82
2022/01/22 02:26:49;;;;;;;5.97;4.13;;;;;;;2.34;80.71;100413.94;4957922;28;20456;-81
2022/01/22 02:29:15;;;;;;;6.30;4.45;;;;;;;2.32;80.69;100417.19;4956917;29;20102;-81
2022/01/22 02:31:55;;;;;;;7.30;4.88;;;;;;;2.41;80.40;100419.50;4965272;28;20574;-81
2022/01/22 02:34:44;;;;;;;6.97;4.75;;;;;;;2.33;81.11;100418.78;4977145;28;20030;-81
2022/01/22 02:37:15;;;;;;;7.50;4.30;;;;;;;2.35;81.19;100421.16;4975788;28;20027;-80
2022/01/22 02:39:57;;;;;;;9.02;5.40;;;;;;;2.34;81.51;100416.75;4977114;28;20026;-81
2022/01/22 02:42:29;;;;;;;7.50;4.93;;;;;;;2.40;80.98;100426.34;4977148;28;20034;-81
2022/01/22 02:44:54;;;;;;;8.75;5.05;;;;;;;2.43;80.32;100429.09;4978297;28;20089;-81
2022/01/22 02:47:20;;;;;;;13.07;5.70;;;;;;;2.44;80.38;100430.69;4976948;28;20031;-81
2022/01/22 02:49:47;;;;;;;9.98;5.45;;;;;;;2.44;80.12;100433.50;4977252;28;20045;-80
2022/01/22 02:52:17;;;;;;;10.52;6.15;;;;;;;2.42;80.52;100438.72;4991371;28;20027;-80
2022/01/22 02:54:44;;;;;;;19.15;11.30;;;;;;;2.40;80.36;100434.75;4976883;28;20023;-81
2022/01/22 02:57:12;;;;;;;13.98;8.20;;;;;;;2.42;80.54;100446.34;4959170;28;20077;-80
2022/01/22 02:59:39;;;;;;;9.77;5.65;;;;;;;2.45;80.39;100437.91;4976561;28;20472;-80
2022/01/22 03:02:08;;;;;;;10.05;5.63;;;;;;;2.42;80.60;100438.72;4975251;28;20500;-81
2022/01/22 03:04:36;;;;;;;9.68;5.57;;;;;;;2.47;80.52;100443.88;4976709;28;20546;-81
2022/01/22 03:07:02;;;;;;;6.20;5.20;;;;;;;2.47;80.50;100448.72;4977350;28;20037;-80
2022/01/22 03:09:32;;;;;;;9.52;5.20;;;;;;;2.51;80.13;100449.50;4975797;28;20023;-81
2022/01/22 03:20:04;;;;;;;8.25;5.32;;;;;;;2.49;80.23;100457.53;4975537;28;20109;-80
2022/01/22 03:22:53;;;;;;;8.48;5.53;;;;;;;2.46;80.18;100453.56;5007281;28;20033;-80
2022/01/22 03:28:00;;;;;;;9.05;5.45;;;;;;;2.51;80.39;100466.34;4989056;28;20038;-81
2022/01/22 03:30:27;;;;;;;8.63;5.70;;;;;;;2.52;79.78;100474.34;4958553;28;20407;-81
2022/01/22 03:32:55;;;;;;;10.55;5.97;;;;;;;2.52;80.09;100484.78;4975729;28;20043;-81
2022/01/22 03:37:52;;;;;;;9.43;5.60;;;;;;;2.54;79.57;100482.38;4974758;28;20031;-81
2022/01/22 03:40:23;;;;;;;10.13;5.47;;;;;;;2.53;79.92;100494.81;4990880;28;20129;-81
2022/01/22 03:42:51;;;;;;;10.02;4.22;;;;;;;2.57;79.51;100492.75;4974451;28;20523;-80
2022/01/22 03:45:18;;;;;;;7.32;4.72;;;;;;;2.57;79.52;100498.38;4990405;28;20031;-79
2022/01/22 03:47:44;;;;;;;6.60;4.28;;;;;;;2.56;79.24;100491.19;4958442;28;20035;-80
2022/01/22 03:50:20;;;;;;;6.82;4.45;;;;;;;2.49;79.53;100499.69;4991064;28;20085;-81
2022/01/22 03:52:50;;;;;;;8.10;4.57;;;;;;;2.48;79.78;100492.47;4974427;28;20023;-81
2022/01/22 03:57:53;;;;;;;7.50;4.22;;;;;;;2.56;79.22;100503.25;4974445;28;20038;-80
2022/01/22 04:00:19;;;;;;;7.78;4.63;;;;;;;2.64;78.99;100511.56;4990352;28;20702;-82
2022/01/22 04:03:20;;;;;;;10.63;5.15;;;;;;;2.59;78.83;100519.25;4974706;28;20023;-82
2022/01/22 04:05:44;;;;;;;6.22;4.53;;;;;;;2.60;78.85;100532.09;4974808;28;20041;-82
2022/01/22 04:08:14;;;;;;;5.43;4.10;;;;;;;2.59;78.39;100538.94;4975083;28;20494;-81
2022/01/22 04:10:40;;;;;;;9.05;4.63;;;;;;;2.55;78.47;100526.13;4989725;28;20092;-81
2022/01/22 04:13:10;;;;;;;6.22;4.05;;;;;;;2.64;78.06;100534.06;4990089;28;20423;-81
2022/01/22 04:15:41;;;;;;;6.45;4.00;;;;;;;2.57;77.82;100534.94;4973421;28;20049;-80
2022/01/22 04:29:06;;;;;;;7.35;4.75;;;;;;;2.28;78.56;100522.41;4974780;28;20118;-80
2022/01/22 04:31:32;;;;;;;8.50;5.55;;;;;;;2.41;78.80;100549.59;4989499;28;20130;-80
2022/01/22 04:33:57;;;;;;;7.75;5.03;;;;;;;2.47;78.27;100552.72;4973854;28;20027;-80
2022/01/22 04:36:26;;;;;;;11.43;5.60;;;;;;;2.41;78.89;100555.19;4975001;28;20027;-80
2022/01/22 04:38:51;;;;;;;6.55;5.35;;;;;;;2.39;79.52;100556.81;4973526;28;20018;-81
2022/01/22 04:41:21;;;;;;;8.73;6.13;;;;;;;2.34;81.21;100557.28;4974817;28;20031;-81
2022/01/22 04:43:56;;;;;;;7.55;5.45;;;;;;;2.36;79.77;100558.47;4974709;28;20085;-81
2022/01/22 04:46:34;;;;;;;6.93;5.30;;;;;;;2.31;80.19;100577.78;4974865;28;20035;-81
2022/01/22 04:52:29;;;;;;;6.85;5.28;;;;;;;2.20;79.90;100586.31;4974794;28;20084;-80
2022/01/22 04:55:00;;;;;;;8.05;5.28;;;;;;;2.23;78.01;100595.91;4987652;28;20069;-80
2022/01/22 04:57:27;;;;;;;6.03;4.10;;;;;;;2.13;78.20;100594.78;4973766;28;20109;-81
2022/01/22 04:59:54;;;;;;;7.60;5.03;;;;;;;2.08;77.60;100589.63;4989565;28;20027;-81
2022/01/22 05:02:22;;;;;;;11.93;5.82;;;;;;;2.10;76.87;100607.66;4973092;28;20443;-79
2022/01/22 05:04:52;;;;;;;8.70;5.45;;;;;;;1.99;77.67;100606.16;4974464;28;20030;-81
2022/01/22 05:07:18;;;;;;;9.38;6.13;;;;;;;1.88;77.87;100608.22;4973132;28;20097;-80
2022/01/22 05:09:45;;;;;;;10.45;5.85;;;;;;;1.83;78.02;100615.09;4989657;28;20467;-80
2022/01/22 05:12:11;;;;;;;10.57;7.13;;;;;;;1.67;77.98;100612.81;4989149;28;20046;-81
2022/01/22 05:14:37;;;;;;;8.63;5.65;;;;;;;1.70;78.47;100633.63;4975980;28;20491;-80
2022/01/22 05:17:06;;;;;;;15.18;7.88;;;;;;;1.66;78.61;100644.91;4976770;28;20506;-80
2022/01/22 05:22:12;;;;;;;13.55;7.50;;;;;;;1.72;78.42;100659.31;4992778;28;20379;-80
2022/01/22 05:24:42;;;;;;;12.95;7.45;;;;;;;1.74;78.47;100648.44;4978233;28;20033;-81
2022/01/22 05:30:05;;;;;;;10.60;7.00;;;;;;;1.58;77.55;100665.78;4977856;28;20144;-82
2022/01/22 05:32:54;;;;;;;10.80;7.07;;;;;;;1.46;77.80;100671.88;4991210;28;20504;-81
2022/01/22 05:38:10;;;;;;;12.75;7.45;;;;;;;1.14;76.52;100674.78;4990907;28;20026;-80
2022/01/22 05:40:36;;;;;;;9.68;6.70;;;;;;;0.97;76.68;100670.03;4976807;28;20031;-80
2022/01/22 05:43:04;;;;;;;14.30;7.43;;;;;;;0.83;76.78;100679.31;4992854;28;20446;-80
2022/01/22 05:45:31;;;;;;;11.93;6.80;;;;;;;0.68;77.67;100697.34;4977914;28;20033;-80
2022/01/22 05:47:57;;;;;;;12.00;7.88;;;;;;;0.61;77.67;100710.53;4976776;28;20027;-79
2022/01/22 05:50:32;;;;;;;14.60;7.38;;;;;;;0.48;77.49;100698.97;4991765;28;20085;-80
2022/01/22 05:53:02;;;;;;;15.15;8.68;;;;;;;0.49;77.68;100706.16;4976165;28;20037;-80
2022/01/22 06:01:22;;;;;;;14.30;8.50;;;;;;;0.30;78.43;100726.16;4976521;28;20137;-81
2022/01/22 06:03:48;;;;;;;13.32;7.95;;;;;;;0.25;78.32;100732.13;4976049;28;20559;-80
2022/01/22 06:06:15;;;;;;;14.90;8.25;;;;;;;0.17;78.63;100736.16;4976182;28;20432;-80
2022/01/22 06:08:51;;;;;;;14.63;8.23;;;;;;;0.17;78.49;100738.94;4976186;28;20030;-79
2022/01/22 06:11:22;;;;;;;13.35;8.25;;;;;;;0.10;79.07;100752.94;4990995;28;20030;-79
2022/01/22 06:13:51;;;;;;;12.38;7.68;;;;;;;0.11;78.82;100766.53;4976206;28;20030;-79
2022/01/22 06:16:23;;;;;;;15.65;8.18;;;;;;;0.07;79.66;100770.53;4992640;28;20042;-79
2022/01/22 06:18:49;;;;;;;15.13;7.88;;;;;;;0.20;79.54;100777.38;4959929;28;20448;-80
2022/01/22 06:21:15;;;;;;;19.17;8.32;;;;;;;0.19;79.06;100779.38;4960007;28;20029;-80
2022/01/22 06:23:45;;;;;;;13.02;7.38;;;;;;;0.22;78.94;100783.34;4991607;28;20033;-80
2022/01/22 06:26:12;;;;;;;13.73;7.45;;;;;;;0.15;78.67;100778.53;4963341;28;20114;-79
2022/01/22 06:28:39;;;;;;;13.73;7.22;;;;;;;-0.01;78.98;100783.72;4975934;28;20041;-82
2022/01/22 06:31:05;;;;;;;18.15;8.00;;;;;;;-0.17;79.11;100788.84;4976470;28;20027;-79
2022/01/22 06:33:31;;;;;;;13.80;7.93;;;;;;;-0.22;79.42;100798.44;4977307;28;20039;-79
2022/01/22 06:35:58;;;;;;;19.38;8.98;;;;;;;-0.34;79.56;100795.97;4976059;28;20031;-79
2022/01/22 06:38:23;;;;;;;16.13;8.38;;;;;;;-0.45;79.27;100797.94;4976926;28;20110;-78
2022/01/22 06:43:36;;;;;;;16.15;7.18;;;;;;;-0.63;80.08;100809.00;4976906;28;20038;-81
2022/01/22 06:46:06;;;;;;;15.35;8.07;;;;;;;-0.73;79.87;100826.53;4958941;28;20136;-82
2022/01/22 06:48:46;;;;;;;15.57;7.00;;;;;;;-0.79;80.31;100835.69;4991825;28;20037;-76
2022/01/22 06:51:11;;;;;;;16.90;8.30;;;;;;;-0.90;80.39;100833.63;4975458;28;20031;-78
2022/01/22 06:53:40;;;;;;;13.50;7.13;;;;;;;-0.91;80.75;100851.56;4959457;28;20042;-79
2022/01/22 06:56:10;;;;;;;20.08;6.95;;;;;;;-0.96;80.68;100851.13;4974671;28;20038;-78
2022/01/22 06:58:36;;;;;;;14.23;6.78;;;;;;;-0.89;80.91;100863.16;4975130;28;20025;-79
2022/01/22 07:01:03;;;;;;;13.73;6.72;;;;;;;-0.73;80.87;100862.06;4974664;28;20027;-79
2022/01/22 07:03:30;;;;;;;19.20;9.55;;;;;;;-0.65;80.94;100866.53;4975328;28;20093;-75
2022/01/22 07:05:57;;;;;;;17.48;8.88;;;;;;;-0.59;80.90;100876.16;4990908;28;20045;-77
2022/01/22 07:08:23;;;;;;;13.45;7.32;;;;;;;-0.58;80.62;100872.16;4959011;28;20026;-77
2022/01/22 07:10:49;;;;;;;14.90;7.85;;;;;;;-0.62;80.41;100872.16;4973039;28;20404;-77
2022/01/22 07:13:15;;;;;;;14.00;6.82;;;;;;;-0.60;79.75;100877.38;4974582;28;20472;-78
2022/01/22 07:15:42;;;;;;;17.15;7.93;;;;;;;-0.61;80.14;100870.16;4974793;28;20106;-79
2022/01/22 07:18:07;;;;;;;11.48;6.80;;;;;;;-0.62;80.49;100865.75;4974497;28;20395;-78
2022/01/22 07:20:38;;;;;;;13.32;7.32;;;;;;;-0.52;80.42;100879.00;4976068;28;20109;-78
2022/01/22 07:23:15;;;;;;;13.67;8.07;;;;;;;-0.41;80.49;100874.28;4975203;28;20111;-80
2022/01/22 07:25:44;;;;;;;16.75;7.60;;;;;;;-0.26;79.97;100894.75;4990182;28;20282;-80
2022/01/22 07:28:11;;;;;;;13.40;7.30;;;;;;;-0.10;79.76;100887.63;4990536;28;20500;-77
2022/01/22 07:30:40;;;;;;;11.90;7.00;;;;;;;0.00;79.06;100902.91;4975749;28;20027;-81
2022/01/22 07:33:18;;;;;;;17.48;7.38;;;;;;;0.04;79.07;100908.53;4990364;28;20055;-76
2022/01/22 07:35:44;;;;;;;13.77;7.30;;;;;;;0.07;79.00;100913.31;4974705;28;20031;-78
2022/01/22 07:38:11;;;;;;;11.88;6.28;;;;;;;0.13;79.48;100906.97;4975700;28;20436;-77
2022/01/22 07:40:38;;;;;;;15.00;7.05;;;;;;;0.29;78.76;100920.63;4975804;28;20037;-78
2022/01/22 07:43:03;;;;;;;12.55;7.55;;;;;;;0.33;78.87;100913.84;4974235;28;20030;-77
2022/01/22 07:45:29;;;;;;;12.98;7.53;;;;;;;0.49;77.85;100912.69;4975686;28;20031;-78
2022/01/22 07:47:58;;;;;;;12.18;7.10;;;;;;;0.50;77.77;100922.69;4974338;28;20109;-77
2022/01/22 07:50:23;;;;;;;12.13;6.88;;;;;;;0.50;77.61;100917.09;5006928;28;20033;-78
2022/01/22 07:52:53;;;;;;;13.20;6.32;;;;;;;0.65;77.56;100935.56;4983944;28;20027;-75
2022/01/22 07:55:21;;;;;;;13.02;6.78;;;;;;;0.72;76.88;100938.38;4974426;28;20030;-80
2022/01/22 07:57:47;;;;;;;21.63;7.50;;;;;;;0.83;76.74;100951.25;5008021;28;20030;-77
2022/01/22 08:00:16;;;;;;;16.77;6.65;;;;;;;0.91;76.26;100943.63;4958146;28;20045;-76
2022/01/22 08:02:42;;;;;;;10.70;6.13;;;;;;;0.93;75.93;100960.06;4976580;28;20033;-79
2022/01/22 08:05:08;;;;;;;16.65;6.65;;;;;;;0.91;75.84;100954.84;4958713;28;20129;-78
2022/01/22 08:07:34;;;;;;;12.13;6.65;;;;;;;0.96;75.88;100957.25;4975712;28;20035;-76
2022/01/22 08:10:03;;;;;;;19.63;7.93;;;;;;;1.03;76.15;100953.69;4976195;28;20087;-78
2022/01/22 08:12:29;;;;;;;13.75;6.38;;;;;;;1.26;75.98;100959.72;4976116;28;20026;-78
2022/01/22 08:14:55;;;;;;;12.90;6.72;;;;;;;1.35;75.50;100959.31;4959115;28;20039;-78
2022/01/22 08:17:22;;;;;;;17.35;7.93;;;;;;;1.30;75.37;100964.13;4975714;28;20030;-77
2022/01/22 08:19:48;;;;;;;15.73;7.60;;;;;;;1.27;75.07;100970.53;4975838;28;20034;-77
2022/01/22 08:22:16;;;;;;;12.80;7.05;;;;;;;1.25;74.90;100958.09;4978220;28;20041;-79
2022/01/22 08:24:42;;;;;;;14.57;7.45;;;;;;;1.21;75.01;100965.72;4975245;28;20047;-80
2022/01/22 08:29:36;;;;;;;13.38;6.78;;;;;;;1.32;74.36;100968.53;4976075;28;20093;-78
2022/01/22 08:32:34;;;;;;;17.77;8.50;;;;;;;1.35;74.70;100973.34;4943732;28;20054;-77
2022/01/22 08:37:35;;;;;;;14.50;7.03;;;;;;;1.74;73.27;100979.75;4976848;28;20478;-77
2022/01/22 08:40:03;;;;;;;15.27;6.75;;;;;;;1.84;72.12;100983.75;4980311;28;20045;-78
2022/01/22 08:42:29;;;;;;;23.20;8.07;;;;;;;1.65;72.47;100965.31;4979461;28;20027;-79
2022/01/22 08:44:55;;;;;;;13.13;6.68;;;;;;;1.74;72.35;100988.97;4973986;28;20045;-79
2022/01/22 08:47:21;;;;;;;14.30;5.60;;;;;;;1.71;72.23;100987.00;4975088;28;20038;-79
2022/01/22 08:49:48;;;;;;;11.38;5.93;;;;;;;1.69;72.20;100983.75;4973349;28;20511;-78
2022/01/22 08:52:16;;;;;;;16.02;7.20;;;;;;;1.79;71.86;100993.38;4976479;28;20033;-81
2022/01/22 08:54:44;;;;;;;13.20;5.43;;;;;;;1.78;71.55;100997.41;4959749;28;20472;-79
2022/01/22 08:57:10;;;;;;;9.27;5.22;;;;;;;1.75;72.66;101003.81;4975851;28;20027;-78
2022/01/22 08:59:37;;;;;;;10.57;5.65;;;;;;;1.80;72.08;101014.66;4957636;28;20050;-80
2022/01/22 09:02:04;;;;;;;11.15;5.63;;;;;;;2.08;71.27;101019.44;4974282;28;20066;-80
2022/01/22 09:04:32;;;;;;;10.43;4.60;;;;;;;2.32;70.78;101018.56;4973170;28;20054;-80
2022/01/22 09:07:00;;;;;;;14.90;6.35;;;;;;;2.48;69.99;101024.56;4974517;28;20034;-80
2022/01/22 09:09:26;;;;;;;11.07;4.90;;;;;;;2.59;69.16;101018.91;4974552;28;20054;-78
2022/01/22 09:11:54;;;;;;;9.52;4.68;;;;;;;2.61;68.33;101022.13;4975301;28;20182;-78
2022/01/22 09:14:20;;;;;;;8.88;4.53;;;;;;;2.47;68.51;101022.94;4989449;28;20034;-78
2022/01/22 09:16:47;;;;;;;7.63;4.25;;;;;;;2.39;68.98;101038.25;4989645;28;20030;-79
2022/01/22 09:19:17;;;;;;;10.27;4.80;;;;;;;2.35;69.25;101042.28;4974432;28;20468;-78
2022/01/22 09:21:45;;;;;;;12.57;4.70;;;;;;;2.39;68.73;101043.88;4974342;28;20077;-81
2022/01/22 09:24:15;;;;;;;8.75;4.20;;;;;;;2.54;68.38;101047.44;4973113;28;20035;-78
2022/01/22 09:26:41;;;;;;;8.73;4.50;;;;;;;2.93;70.42;101042.47;4974166;28;20042;-78
2022/01/22 09:29:08;;;;;;;9.35;5.05;;;;;;;3.12;71.28;101040.38;4973080;28;20038;-77
2022/01/22 09:31:35;;;;;;;8.07;3.95;;;;;;;2.97;69.83;101039.63;4973864;28;20065;-79
2022/01/22 09:34:02;;;;;;;10.45;4.13;;;;;;;2.81;69.70;101053.38;4975367;28;20121;-78
2022/01/22 09:36:37;;;;;;;8.60;4.20;;;;;;;2.72;69.18;101062.25;4973122;28;20134;-77
2022/01/22 09:39:04;;;;;;;6.25;3.20;;;;;;;2.78;66.63;101071.88;4973129;28;20038;-78
2022/01/22 09:41:30;;;;;;;7.30;4.07;;;;;;;2.67;66.44;101076.72;4974333;28;20047;-77
2022/01/22 09:43:56;;;;;;;7.88;3.05;;;;;;;2.56;66.27;101068.34;4973406;28;20070;-77
2022/01/22 09:46:32;;;;;;;15.73;4.40;;;;;;;2.64;65.49;101080.34;5005770;28;20030;-77
2022/01/22 09:48:59;;;;;;;14.80;4.03;;;;;;;2.69;65.24;101071.50;4973007;28;20113;-78
2022/01/22 09:51:26;;;;;;;9.80;3.40;;;;;;;2.72;65.68;101076.31;4973110;28;20365;-77
2022/01/22 09:53:52;;;;;;;9.57;3.38;;;;;;;2.87;65.08;101077.84;4974092;28;20035;-77
2022/01/22 09:56:21;;;;;;;12.20;4.55;;;;;;;2.90;64.09;101087.50;4987989;28;20042;-78
2022/01/22 09:58:47;;;;;;;7.65;4.03;;;;;;;2.81;64.32;101096.34;4971578;28;20054;-76
2022/01/22 10:01:41;;;;;;;5.20;2.42;;;;;;;2.64;64.04;101100.03;4973849;28;20030;-77
2022/01/22 10:04:09;;;;;;;5.88;2.75;;;;;;;2.78;62.42;101110.44;4952957;28;20038;-76
2022/01/22 10:06:47;;;;;;;4.45;2.85;;;;;;;2.56;64.68;101102.09;4975006;28;20035;-77
2022/01/22 10:09:34;;;;;;;6.68;2.35;;;;;;;2.58;63.66;101115.72;4975101;28;20053;-77
2022/01/22 10:12:27;;;;;;;10.60;3.17;;;;;;;2.58;63.04;101119.31;4976285;28;20243;-77
2022/01/22 10:15:14;;;;;;;6.30;2.25;;;;;;;2.69;62.08;101116.50;4957225;28;20047;-77
2022/01/22 10:17:43;;;;;;;5.45;2.58;;;;;;;2.72;62.43;101121.31;4976296;28;20206;-76
2022/01/22 10:20:29;;;;;;;6.75;2.35;;;;;;;2.94;61.90;101131.31;4977135;28;20038;-76
2022/01/22 10:23:00;;;;;;;5.40;2.65;;;;;;;3.21;60.83;101142.84;4977294;28;20384;-76
2022/01/22 10:25:57;;;;;;;5.40;2.73;;;;;;;3.22;59.48;101138.81;4975743;28;20081;-76
2022/01/22 10:28:26;;;;;;;4.43;2.58;;;;;;;3.26;59.04;101133.16;4975941;28;20490;-77
2022/01/22 10:31:17;;;;;;;6.53;3.10;;;;;;;3.48;58.69;101143.94;4975742;28;20034;-76
2022/01/22 10:33:43;;;;;;;11.82;2.80;;;;;;;3.62;56.74;101128.16;4976771;28;20047;-76
2022/01/22 10:36:20;;;;;;;5.47;2.53;;;;;;;3.75;57.12;101141.34;4992123;28;20030;-77
2022/01/22 10:38:52;;;;;;;3.88;2.58;;;;;;;3.97;57.53;101133.56;4975763;28;20030;-77
2022/01/22 10:41:39;;;;;;;8.73;2.40;;;;;;;4.22;56.58;101134.19;4975637;28;20026;-77
2022/01/22 10:44:08;;;;;;;4.72;2.40;;;;;;;4.64;57.27;101143.47;4974522;28;20043;-77
2022/01/22 10:46:46;;;;;;;6.40;2.70;;;;;;;4.75;56.09;101150.63;4975364;28;20383;-77
2022/01/22 10:49:19;;;;;;;7.75;2.53;;;;;;;4.82;55.43;101140.47;4990760;28;20035;-78
2022/01/22 10:51:56;;;;;;;10.90;2.40;;;;;;;4.84;54.18;101155.75;4976632;28;20033;-77
2022/01/22 10:54:28;;;;;;;7.28;2.90;;;;;;;4.74;54.46;101153.84;5007606;28;20111;-77
2022/01/22 10:57:11;;;;;;;5.05;2.88;;;;;;;4.78;52.43;101158.22;4975185;28;20027;-78
2022/01/22 10:59:51;;;;;;;8.77;2.97;;;;;;;4.85;52.07;101151.72;4959488;28;20054;-78
2022/01/22 11:02:18;;;;;;;20.77;4.60;;;;;;;4.88;52.25;101156.56;4991305;28;20039;-78
2022/01/22 11:04:48;;;;;;;4.95;2.58;;;;;;;4.67;52.30;101149.09;4976474;28;20031;-78
2022/01/22 11:07:27;;;;;;;6.78;2.83;;;;;;;4.74;51.60;101154.66;4991817;28;20026;-79
2022/01/22 11:10:08;;;;;;;8.38;3.63;;;;;;;4.63;52.11;101164.47;4976593;28;20023;-79
2022/01/22 11:12:33;;;;;;;5.70;2.50;;;;;;;4.43;51.98;101157.78;5007224;28;20023;-77
2022/01/22 11:14:59;;;;;;;9.10;3.92;;;;;;;4.35;52.82;101157.84;4975336;28;20546;-77
2022/01/22 11:17:31;;;;;;;4.82;2.55;;;;;;;4.41;52.97;101163.03;4974875;28;20027;-78
2022/01/22 11:20:06;;;;;;;9.30;3.40;;;;;;;4.46;53.01;101160.56;4991162;28;20191;-79
2022/01/22 11:22:46;;;;;;;6.97;3.72;;;;;;;4.45;52.75;101172.25;4959189;28;20111;-77
2022/01/22 11:25:26;;;;;;;7.35;2.75;;;;;;;4.47;53.71;101167.00;4958748;28;20026;-77
2022/01/22 11:27:53;;;;;;;6.93;2.55;;;;;;;4.56;52.65;101170.97;4976053;28;20030;-78
2022/01/22 11:30:25;;;;;;;6.60;2.97;;;;;;;4.46;52.87;101180.31;4974958;28;20034;-78
2022/01/22 11:33:07;;;;;;;8.95;3.00;;;;;;;4.28;52.50;101177.66;4974553;28;20055;-78
2022/01/22 11:35:45;;;;;;;;;;;;;;;4.30;52.32;101180.84;4991709;28;20042;-76
2022/01/22 11:38:32;;;;;;;4.07;2.50;;;;;;;4.16;52.61;101180.94;4974502;28;20068;-77
2022/01/22 11:41:13;;;;;;;6.22;2.72;;;;;;;4.03;51.92;101185.47;4976056;28;20054;-78
2022/01/22 11:44:03;;;;;;;4.30;2.77;;;;;;;4.16;52.93;101197.88;4974569;28;20027;-78
2022/01/22 11:46:35;;;;;;;5.15;2.17;;;;;;;4.35;52.78;101202.97;4975599;28;20026;-78
2022/01/22 11:49:19;;;;;;;6.72;2.40;;;;;;;4.49;52.12;101198.44;4974864;28;20031;-78
2022/01/22 11:51:49;;;;;;;8.38;2.83;;;;;;;4.56;52.76;101204.00;5006701;28;20031;-78
2022/01/22 11:54:16;;;;;;;8.63;2.58;;;;;;;4.69;53.20;101207.91;4990827;28;20058;-78
2022/01/22 11:57:05;;;;;;;7.15;2.90;;;;;;;4.84;51.50;101217.03;5006607;28;20392;-78
2022/01/22 11:59:32;;;;;;;9.75;3.00;;;;;;;4.65;51.70;101224.06;4975062;28;20046;-78
2022/01/22 12:02:03;;;;;;;5.68;3.53;;;;;;;4.66;52.34;101217.22;4974635;28;20475;-77
2022/01/22 12:04:45;;;;;;;9.70;2.92;;;;;;;4.73;52.54;101226.44;4990387;28;20098;-77
2022/01/22 12:07:13;;;;;;;8.95;3.70;;;;;;;4.77;52.26;101232.03;4990097;28;20030;-78
2022/01/22 12:15:40;;;;;;;3.50;2.22;;;;;;;4.54;49.36;101248.78;4975533;28;20085;-78
2022/01/22 12:18:11;;;;;;;4.22;2.40;;;;;;;4.57;49.76;101254.38;4967742;28;20030;-79
2022/01/22 12:23:20;;;;;;;5.70;2.30;;;;;;;4.56;49.94;101249.13;4978371;28;19969;-78
2022/01/22 12:25:46;;;;;;;5.18;2.35;;;;;;;4.67;48.80;101250.66;4974375;28;20027;-76
2022/01/22 12:28:14;;;;;;;4.50;2.15;;;;;;;4.73;49.83;101254.66;4983105;28;20125;-75
2022/01/22 12:30:49;;;;;;;5.30;2.10;;;;;;;4.93;49.18;101252.06;4974361;28;20101;-79
2022/01/22 12:33:30;;;;;;;4.40;2.47;;;;;;;5.06;50.04;101249.50;4974901;28;20555;-74
2022/01/22 12:36:06;;;;;;;5.10;1.85;;;;;;;4.95;48.44;101220.56;4975256;28;20030;-75
2022/01/22 12:44:35;;;;;;;5.88;2.90;;;;;;;4.79;49.26;101250.16;4973860;28;20058;-77
2022/01/22 12:47:22;;;;;;;5.13;2.38;;;;;;;4.66;49.34;101243.41;4973006;28;20061;-76
2022/01/22 12:49:57;;;;;;;7.05;2.50;;;;;;;4.67;49.95;101255.50;4957198;28;20436;-75
2022/01/22 12:52:26;;;;;;;9.80;2.88;;;;;;;4.60;50.14;101252.72;4973338;28;20464;-75
2022/01/22 12:54:57;;;;;;;4.97;2.72;;;;;;;4.51;50.00;101243.94;4989773;28;20496;-77
2022/01/22 12:57:25;;;;;;;6.28;2.70;;;;;;;4.44;50.11;101258.13;4973220;28;20030;-76
2022/01/22 13:00:14;;;;;;;6.30;2.67;;;;;;;4.33;49.96;101256.16;4968528;28;20396;-77
2022/01/22 13:02:41;;;;;;;5.30;2.90;;;;;;;4.27;50.04;101263.44;4953983;29;20027;-75
2022/01/22 13:05:08;;;;;;;4.65;2.70;;;;;;;4.19;50.03;101261.09;4961176;28;20480;-77
2022/01/22 13:07:57;;;;;;;7.47;3.38;;;;;;;4.06;50.18;101263.56;4955130;28;20023;-77
2022/01/22 13:10:32;;;;;;;7.80;3.20;;;;;;;4.01;51.11;101269.63;4968962;28;20030;-74
2022/01/22 13:13:00;;;;;;;8.30;3.30;;;;;;;3.96;51.07;101275.69;4969219;28;20031;-82
2022/01/22 13:15:30;;;;;;;8.15;3.00;;;;;;;3.92;51.68;101281.34;4970043;28;20059;-78
2022/01/22 13:17:58;;;;;;;6.03;3.15;;;;;;;3.94;51.89;101277.34;4947008;28;20082;-76
2022/01/22 13:20:27;;;;;;;10.40;3.70;;;;;;;3.93;51.88;101276.53;4958726;28;20062;-75
2022/01/22 13:22:54;;;;;;;14.00;4.55;;;;;;;3.87;52.13;101273.31;4954943;28;20035;-76
2022/01/22 13:25:20;;;;;;;11.30;5.10;;;;;;;3.85;52.59;101277.75;4955204;28;20039;-76